Weather History for 06770 - March, 2014

Change the Weather History Date:

Wednesday, March 19, 2014

  Actual Average Record
Temperature  
Mean Temperature 58 °F -  
Max Temperature 74 °F 56 °F - ()
Min Temperature 42 °F 42 °F - ()
Degree Days  
Heating Degree Days 7    
Growing Degree Days 8 (Base 50)    
Moisture  
Dew Point 33 °F    
Average Humidity 45    
Maximum Humidity 100    
Minimum Humidity 5    
Precipitation  
Precipitation 0.00 in 0.18 in - ()
Sea Level Pressure  
Sea Level Pressure 30.10 in    
Wind  
Wind Speed 5 mph ()    
Max Wind Speed 18 mph    
Max Gust Speed -    
Visibility 4.7 miles    
Events Fog    
T = Trace of Precipitation, MM = Missing Value Source: Averaged Metar Reports

Daily Weather History Graph

Daily Weather History Graph

Search for Another Location

Airport or City:

Trip Planner

Search our weather history database for the weather conditions in past years. The results will help you decide how hot, cold, wet, or windy it might be!

Date:

Astronomy

Mar. 19, 2014 Rise Set
Actual Time 6:29 AM CET 6:35 PM CET
Civil Twilight 6:00 AM CET 7:05 PM CET
Nautical Twilight 5:25 AM CET 7:40 PM CET
Astronomical Twilight 4:49 AM CET 8:16 PM CET
Moon 9:48 PM CET (3/19) 7:36 AM CET (3/19)
Length of Visible Light 13h 05m
Length of Day
12h 05m
Waning Gibbous, 92% of the Moon is Illuminated
Mar 19
Waning Gibbous
Mar 24
Last Quarter
Mar 30
New
Apr 7
First Quarter
Apr 15
Full

Hourly Weather History & Observations

Time (CET) Temp. Windchill Dew Point Humidity Pressure Visibility Wind Dir Wind Speed Gust Speed Precip Events Conditions
12:00 AM 53 °F - 49 °F 80% 30.08 in - NE 2.3 mph - -  
12:20 AM 50.0 °F - 46.4 °F 87% 30.06 in 5.0 mi Variable 2.3 mph - N/A   Unknown
12:50 AM 50.0 °F - 48.2 °F 94% 30.06 in 4.3 mi Variable 2.3 mph - N/A   Unknown
1:00 AM 53 °F - 49 °F 81% 30.08 in 12 mi East 1.2 mph - -  
1:20 AM 50.0 °F - 46.4 °F 87% 30.06 in 4.3 mi Variable 2.3 mph - N/A   Unknown
1:50 AM 48.2 °F - 46.4 °F 93% 30.06 in 3.7 mi Variable 2.3 mph - N/A   Unknown
2:00 AM 51 °F - 48 °F 87% 30.08 in - East 1.2 mph - -  
2:20 AM 46.4 °F 45.2 °F 44.6 °F 93% 30.06 in 3.1 mi North 3.5 mph - N/A   Unknown
2:50 AM 46.4 °F - 46.4 °F 100% 30.06 in - Variable 1.2 mph - N/A   Mist
3:00 AM 50 °F - 48 °F 89% 30.07 in - NNW 1.2 mph - -  
3:20 AM 46.4 °F - 44.6 °F 93% 30.04 in 3.1 mi Variable 1.2 mph - N/A   Unknown
3:50 AM 46.4 °F - 44.6 °F 93% 30.06 in 3.1 mi Variable 2.3 mph - N/A   Unknown
4:00 AM 50 °F - 46 °F 80% 30.07 in 16 mi North 1.2 mph - -  
4:20 AM 46.4 °F - 44.6 °F 93% 30.06 in 3.1 mi Variable 1.2 mph - N/A   Unknown
4:50 AM 44.6 °F - 44.6 °F 100% 30.04 in 2.5 mi Variable 1.2 mph - N/A   Mist
5:00 AM 49 °F - 45 °F 82% 30.07 in - North 1.2 mph - -  
5:20 AM 44.6 °F - 44.6 °F 100% 30.06 in - Variable 1.2 mph - N/A   Mist
5:50 AM 42.8 °F 41.1 °F 42.8 °F 100% 30.06 in 1.6 mi North 3.5 mph - N/A   Mist
6:00 AM 49 °F - 44 °F 79% 30.09 in - North 1.2 mph - -  
6:20 AM 44.6 °F - 42.8 °F 93% 30.06 in 3.1 mi North 2.3 mph - N/A Fog Fog
6:50 AM 42.8 °F - 42.8 °F 100% 30.06 in 3.1 mi Variable 1.2 mph - N/A   Mist
7:00 AM 49 °F - 44 °F 77% 30.10 in 22 mi North 3.5 mph - -  
7:20 AM 42.8 °F - 42.8 °F 100% 30.09 in 3.7 mi Variable 1.2 mph - N/A Fog Fog
7:50 AM 42.8 °F 41.1 °F 42.8 °F 100% 30.09 in 3.7 mi North 3.5 mph - N/A   Unknown
8:00 AM 59 °F - 36 °F 30% 30.09 in - North 8.1 mph - -  
8:20 AM 44.6 °F - 44.6 °F 100% 30.09 in - Variable 2.3 mph - N/A   Clear
8:50 AM 57.2 °F - 37.4 °F 48% 30.09 in - Variable 4.6 mph - N/A   Clear
9:00 AM 64 °F - 28 °F 15% 30.10 in - NNE 9.2 mph - -  
9:20 AM 64.4 °F - 30.2 °F 28% 30.09 in - NNE 11.5 mph - N/A   Clear
9:50 AM 66.2 °F - 28.4 °F 24% 30.12 in - NNE 12.7 mph - N/A   Clear
10:00 AM 67 °F - 26 °F 11% 30.11 in - NE 11.5 mph - -  
10:20 AM 66.2 °F - 28.4 °F 24% 30.12 in - NNE 11.5 mph - N/A   Clear
10:50 AM 68.0 °F - 28.4 °F 23% 30.12 in - NNE 10.4 mph - N/A   Clear
11:00 AM 69 °F - 24 °F 9% 30.11 in - NE 12.7 mph - -  
11:20 AM 68.0 °F - 26.6 °F 21% 30.12 in - NNE 12.7 mph - N/A   Clear
11:50 AM 69.8 °F - 28.4 °F 21% 30.12 in - North 12.7 mph - N/A   Clear
12:00 PM 71 °F - 23 °F 8% 30.09 in - NNE 12.7 mph - -  
12:20 PM 69.8 °F - 28.4 °F 21% 30.12 in - NNE 10.4 mph - N/A   Clear
12:50 PM 71.6 °F - 28.4 °F 20% 30.12 in - NNE 11.5 mph - N/A   Clear
1:00 PM 73 °F - 22 °F 7% 30.09 in 31 mi NE 10.4 mph - -  
1:20 PM 71.6 °F - 28.4 °F 20% 30.09 in - North 12.7 mph - N/A   Clear
1:50 PM 73.4 °F - 26.6 °F 18% 30.09 in - NNE 10.4 mph - N/A   Clear
2:00 PM 74 °F - 20 °F 6% 30.07 in - NE 12.7 mph - -  
2:20 PM 73.4 °F - 24.8 °F 16% 30.09 in - NNE 10.4 mph - N/A   Clear
2:50 PM 73.4 °F - 26.6 °F 18% 30.09 in - NNE 11.5 mph - N/A   Clear
3:00 PM 75 °F - 24 °F 7% 30.06 in - NE 13.8 mph - -  
3:20 PM 73.4 °F - 28.4 °F 19% 30.09 in - NNE 11.5 mph - N/A   Clear
3:50 PM 73.4 °F - 30.2 °F 20% 30.09 in - North 12.7 mph - N/A   Clear
4:00 PM 75 °F - 19 °F 5% 30.06 in - NE 12.7 mph - -  
4:20 PM 73.4 °F - 26.6 °F 18% 30.06 in - North 13.8 mph - N/A   Clear
4:50 PM 73.4 °F - 28.4 °F 19% 30.09 in - North 13.8 mph - N/A   Clear
5:00 PM 73 °F - 18 °F 5% 30.06 in - NE 15.0 mph - -  
5:20 PM 69.8 °F - 26.6 °F 20% 30.09 in - North 13.8 mph - N/A   Clear
5:50 PM 68.0 °F - 23.0 °F 18% 30.12 in - North 11.5 mph - N/A   Clear
6:00 PM 71 °F - 19 °F 6% 30.09 in - NNE 16.1 mph - -  
6:20 PM 68.0 °F - 26.6 °F 21% 30.12 in - North 13.8 mph - N/A   Clear
6:50 PM 68.0 °F - 23.0 °F 18% 30.12 in - North 18.4 mph - N/A   Clear
7:00 PM 69 °F - 21 °F 8% 30.12 in 31 mi NE 11.5 mph - -  
7:20 PM 68.0 °F - 23.0 °F 18% 30.15 in - NNE 11.5 mph - N/A   Clear
7:50 PM 66.2 °F - 23.0 °F 19% 30.15 in - North 16.1 mph - N/A   Clear
8:00 PM 66 °F - 26 °F 12% 30.14 in - NNE 5.8 mph - -  
8:20 PM 64.4 °F - 24.8 °F 22% 30.15 in - North 13.8 mph - N/A   Clear
8:50 PM 64.4 °F - 24.8 °F 22% 30.15 in - North 16.1 mph - N/A   Clear
9:00 PM 59 °F - 36 °F 30% 30.17 in - SSW 5.8 mph - -  
9:20 PM 64.4 °F - 24.8 °F 22% 30.18 in - North 8.1 mph - N/A   Clear
9:50 PM 64.4 °F - 24.8 °F 22% 30.18 in - NNE 5.8 mph - N/A   Clear
10:00 PM 61 °F - 30 °F 20% 30.19 in - SSW 1.2 mph - -  
10:20 PM 57.2 °F - 30.2 °F 36% 30.21 in - SW 5.8 mph - N/A   Clear
10:50 PM 57.2 °F - 28.4 °F 33% 30.21 in - Variable 2.3 mph - N/A   Clear
11:00 PM 57 °F - 31 °F 25% 30.23 in - NW 2.3 mph - -  
11:20 PM 53.6 °F - 33.8 °F 47% 30.21 in - Variable 3.5 mph - N/A   Clear
11:50 PM 51.8 °F - 33.8 °F 50% 30.24 in - Variable 1.2 mph - N/A   Clear